sensor_id;sensor_type;location;lat;lon;timestamp;P1;durP1;ratioP1;P2;durP2;ratioP2
16669;SDS011;8448;52.034;5.158;2023-01-16T00:01:17;7.33;;;5.23;;
16669;SDS011;8448;52.034;5.158;2023-01-16T00:03:45;9.17;;;4.97;;
16669;SDS011;8448;52.034;5.158;2023-01-16T00:06:12;8.90;;;4.70;;
16669;SDS011;8448;52.034;5.158;2023-01-16T00:08:40;6.93;;;4.50;;
16669;SDS011;8448;52.034;5.158;2023-01-16T00:11:08;7.73;;;4.50;;
16669;SDS011;8448;52.034;5.158;2023-01-16T00:13:36;8.73;;;4.73;;
16669;SDS011;8448;52.034;5.158;2023-01-16T00:16:05;8.07;;;5.07;;
16669;SDS011;8448;52.034;5.158;2023-01-16T00:18:33;7.53;;;4.73;;
16669;SDS011;8448;52.034;5.158;2023-01-16T00:21:00;9.23;;;5.30;;
16669;SDS011;8448;52.034;5.158;2023-01-16T00:23:28;9.23;;;5.57;;
16669;SDS011;8448;52.034;5.158;2023-01-16T00:25:55;13.67;;;7.00;;
16669;SDS011;8448;52.034;5.158;2023-01-16T00:28:23;11.07;;;7.57;;
16669;SDS011;8448;52.034;5.158;2023-01-16T00:30:50;12.10;;;7.63;;
16669;SDS011;8448;52.034;5.158;2023-01-16T00:33:19;14.73;;;8.63;;
16669;SDS011;8448;52.034;5.158;2023-01-16T00:35:46;15.27;;;9.07;;
16669;SDS011;8448;52.034;5.158;2023-01-16T00:38:13;13.07;;;8.90;;
16669;SDS011;8448;52.034;5.158;2023-01-16T00:40:41;13.93;;;8.57;;
16669;SDS011;8448;52.034;5.158;2023-01-16T00:43:08;13.97;;;8.93;;
16669;SDS011;8448;52.034;5.158;2023-01-16T00:45:35;15.17;;;8.70;;
16669;SDS011;8448;52.034;5.158;2023-01-16T00:48:04;15.73;;;8.67;;
16669;SDS011;8448;52.034;5.158;2023-01-16T00:50:33;12.93;;;8.40;;
16669;SDS011;8448;52.034;5.158;2023-01-16T00:53:01;14.85;;;10.45;;
16669;SDS011;8448;52.034;5.158;2023-01-16T00:55:28;12.03;;;8.67;;
16669;SDS011;8448;52.034;5.158;2023-01-16T00:57:55;12.63;;;8.30;;
16669;SDS011;8448;52.034;5.158;2023-01-16T01:00:23;12.63;;;8.30;;
16669;SDS011;8448;52.034;5.158;2023-01-16T01:02:50;12.30;;;7.70;;
16669;SDS011;8448;52.034;5.158;2023-01-16T01:05:18;11.43;;;7.67;;
16669;SDS011;8448;52.034;5.158;2023-01-16T01:07:47;13.15;;;7.78;;
16669;SDS011;8448;52.034;5.158;2023-01-16T01:10:14;14.23;;;8.00;;
16669;SDS011;8448;52.034;5.158;2023-01-16T01:12:41;12.70;;;7.50;;
16669;SDS011;8448;52.034;5.158;2023-01-16T01:15:09;15.23;;;7.90;;
16669;SDS011;8448;52.034;5.158;2023-01-16T01:17:36;13.23;;;7.87;;
16669;SDS011;8448;52.034;5.158;2023-01-16T01:20:04;18.17;;;8.30;;
16669;SDS011;8448;52.034;5.158;2023-01-16T01:22:32;14.27;;;8.40;;
16669;SDS011;8448;52.034;5.158;2023-01-16T01:25:01;15.40;;;8.37;;
16669;SDS011;8448;52.034;5.158;2023-01-16T01:27:28;14.27;;;8.17;;
16669;SDS011;8448;52.034;5.158;2023-01-16T01:29:55;17.07;;;8.73;;
16669;SDS011;8448;52.034;5.158;2023-01-16T01:32:23;15.90;;;9.88;;
16669;SDS011;8448;52.034;5.158;2023-01-16T01:34:50;13.13;;;8.00;;
16669;SDS011;8448;52.034;5.158;2023-01-16T01:37:17;16.00;;;7.90;;
16669;SDS011;8448;52.034;5.158;2023-01-16T01:39:45;15.47;;;8.57;;
16669;SDS011;8448;52.034;5.158;2023-01-16T01:42:13;15.93;;;8.07;;
16669;SDS011;8448;52.034;5.158;2023-01-16T01:45:00;17.53;;;8.27;;
16669;SDS011;8448;52.034;5.158;2023-01-16T01:47:30;13.23;;;8.13;;
16669;SDS011;8448;52.034;5.158;2023-01-16T01:50:01;14.63;;;7.30;;
16669;SDS011;8448;52.034;5.158;2023-01-16T01:52:30;13.60;;;7.03;;
16669;SDS011;8448;52.034;5.158;2023-01-16T01:54:59;13.50;;;7.50;;
16669;SDS011;8448;52.034;5.158;2023-01-16T01:57:32;13.73;;;7.20;;
16669;SDS011;8448;52.034;5.158;2023-01-16T02:00:04;12.70;;;7.30;;
16669;SDS011;8448;52.034;5.158;2023-01-16T02:02:40;13.77;;;7.67;;
16669;SDS011;8448;52.034;5.158;2023-01-16T02:05:10;14.70;;;7.57;;
16669;SDS011;8448;52.034;5.158;2023-01-16T02:07:40;15.13;;;7.63;;
16669;SDS011;8448;52.034;5.158;2023-01-16T02:10:10;16.97;;;7.57;;
16669;SDS011;8448;52.034;5.158;2023-01-16T02:12:42;12.83;;;7.17;;
16669;SDS011;8448;52.034;5.158;2023-01-16T02:15:09;14.07;;;7.63;;
16669;SDS011;8448;52.034;5.158;2023-01-16T02:17:43;15.47;;;7.00;;
16669;SDS011;8448;52.034;5.158;2023-01-16T02:20:28;11.73;;;7.30;;
16669;SDS011;8448;52.034;5.158;2023-01-16T02:23:17;11.77;;;6.67;;
16669;SDS011;8448;52.034;5.158;2023-01-16T02:26:26;10.80;;;5.83;;
16669;SDS011;8448;52.034;5.158;2023-01-16T02:29:23;12.63;;;5.80;;
16669;SDS011;8448;52.034;5.158;2023-01-16T02:32:19;10.63;;;5.23;;
16669;SDS011;8448;52.034;5.158;2023-01-16T02:35:12;8.43;;;4.97;;
16669;SDS011;8448;52.034;5.158;2023-01-16T02:37:47;12.00;;;4.60;;
16669;SDS011;8448;52.034;5.158;2023-01-16T02:40:29;9.60;;;4.27;;
16669;SDS011;8448;52.034;5.158;2023-01-16T02:43:06;7.87;;;3.53;;
16669;SDS011;8448;52.034;5.158;2023-01-16T02:45:40;9.47;;;3.67;;
16669;SDS011;8448;52.034;5.158;2023-01-16T02:48:12;7.83;;;3.30;;
16669;SDS011;8448;52.034;5.158;2023-01-16T02:50:46;8.27;;;3.17;;
16669;SDS011;8448;52.034;5.158;2023-01-16T02:53:19;8.00;;;3.97;;
16669;SDS011;8448;52.034;5.158;2023-01-16T02:55:49;7.03;;;3.00;;
16669;SDS011;8448;52.034;5.158;2023-01-16T02:58:19;5.50;;;2.50;;
16669;SDS011;8448;52.034;5.158;2023-01-16T03:00:48;6.47;;;2.33;;
16669;SDS011;8448;52.034;5.158;2023-01-16T03:03:22;8.83;;;2.20;;
16669;SDS011;8448;52.034;5.158;2023-01-16T03:06:08;4.00;;;1.93;;
16669;SDS011;8448;52.034;5.158;2023-01-16T03:08:52;7.37;;;2.30;;
16669;SDS011;8448;52.034;5.158;2023-01-16T03:11:27;6.27;;;2.17;;
16669;SDS011;8448;52.034;5.158;2023-01-16T03:14:05;5.87;;;2.57;;
16669;SDS011;8448;52.034;5.158;2023-01-16T03:16:51;6.40;;;2.00;;
16669;SDS011;8448;52.034;5.158;2023-01-16T03:19:35;6.90;;;2.10;;
16669;SDS011;8448;52.034;5.158;2023-01-16T03:22:12;8.07;;;2.40;;
16669;SDS011;8448;52.034;5.158;2023-01-16T03:24:45;5.40;;;2.00;;
16669;SDS011;8448;52.034;5.158;2023-01-16T03:27:24;7.47;;;2.40;;
16669;SDS011;8448;52.034;5.158;2023-01-16T03:29:57;6.80;;;2.10;;
16669;SDS011;8448;52.034;5.158;2023-01-16T03:32:28;5.00;;;2.10;;
16669;SDS011;8448;52.034;5.158;2023-01-16T03:35:02;5.23;;;2.23;;
16669;SDS011;8448;52.034;5.158;2023-01-16T03:37:32;5.10;;;2.00;;
16669;SDS011;8448;52.034;5.158;2023-01-16T03:40:06;7.03;;;2.30;;
16669;SDS011;8448;52.034;5.158;2023-01-16T03:42:36;9.37;;;2.30;;
16669;SDS011;8448;52.034;5.158;2023-01-16T03:45:07;6.70;;;2.37;;
16669;SDS011;8448;52.034;5.158;2023-01-16T03:47:38;7.03;;;2.33;;
16669;SDS011;8448;52.034;5.158;2023-01-16T03:50:10;10.43;;;2.60;;
16669;SDS011;8448;52.034;5.158;2023-01-16T03:52:39;5.53;;;2.20;;
16669;SDS011;8448;52.034;5.158;2023-01-16T03:55:11;7.73;;;2.30;;
16669;SDS011;8448;52.034;5.158;2023-01-16T03:57:41;4.30;;;2.20;;
16669;SDS011;8448;52.034;5.158;2023-01-16T04:02:41;5.73;;;1.97;;
16669;SDS011;8448;52.034;5.158;2023-01-16T04:05:15;7.77;;;1.97;;
16669;SDS011;8448;52.034;5.158;2023-01-16T04:07:44;6.50;;;1.83;;
16669;SDS011;8448;52.034;5.158;2023-01-16T04:10:15;7.10;;;1.80;;
16669;SDS011;8448;52.034;5.158;2023-01-16T04:12:47;4.43;;;1.50;;
16669;SDS011;8448;52.034;5.158;2023-01-16T04:15:17;4.67;;;1.57;;
16669;SDS011;8448;52.034;5.158;2023-01-16T04:17:45;8.77;;;1.93;;
16669;SDS011;8448;52.034;5.158;2023-01-16T04:20:12;7.67;;;1.73;;
16669;SDS011;8448;52.034;5.158;2023-01-16T04:22:41;4.87;;;1.50;;
16669;SDS011;8448;52.034;5.158;2023-01-16T04:25:14;5.20;;;1.87;;
16669;SDS011;8448;52.034;5.158;2023-01-16T04:27:41;4.87;;;1.77;;
16669;SDS011;8448;52.034;5.158;2023-01-16T04:30:09;3.50;;;1.60;;
16669;SDS011;8448;52.034;5.158;2023-01-16T04:32:37;4.90;;;1.80;;
16669;SDS011;8448;52.034;5.158;2023-01-16T04:35:05;5.70;;;1.80;;
16669;SDS011;8448;52.034;5.158;2023-01-16T04:37:34;4.67;;;1.80;;
16669;SDS011;8448;52.034;5.158;2023-01-16T04:40:02;5.27;;;1.70;;
16669;SDS011;8448;52.034;5.158;2023-01-16T04:42:30;8.47;;;2.10;;
16669;SDS011;8448;52.034;5.158;2023-01-16T04:44:57;5.70;;;1.73;;
16669;SDS011;8448;52.034;5.158;2023-01-16T04:47:24;5.37;;;1.83;;
16669;SDS011;8448;52.034;5.158;2023-01-16T04:49:52;6.33;;;2.00;;
16669;SDS011;8448;52.034;5.158;2023-01-16T04:52:19;5.20;;;1.80;;
16669;SDS011;8448;52.034;5.158;2023-01-16T04:54:48;5.53;;;1.63;;
16669;SDS011;8448;52.034;5.158;2023-01-16T04:57:15;4.00;;;1.70;;
16669;SDS011;8448;52.034;5.158;2023-01-16T04:59:43;5.50;;;1.90;;
16669;SDS011;8448;52.034;5.158;2023-01-16T05:02:10;4.83;;;1.90;;
16669;SDS011;8448;52.034;5.158;2023-01-16T05:04:37;8.53;;;2.00;;
16669;SDS011;8448;52.034;5.158;2023-01-16T05:07:05;6.17;;;2.13;;
16669;SDS011;8448;52.034;5.158;2023-01-16T05:09:32;5.07;;;2.23;;
16669;SDS011;8448;52.034;5.158;2023-01-16T05:12:01;5.87;;;1.90;;
16669;SDS011;8448;52.034;5.158;2023-01-16T05:14:28;4.70;;;1.83;;
16669;SDS011;8448;52.034;5.158;2023-01-16T05:16:55;7.30;;;2.40;;
16669;SDS011;8448;52.034;5.158;2023-01-16T05:19:23;8.00;;;2.53;;
16669;SDS011;8448;52.034;5.158;2023-01-16T05:21:50;8.37;;;2.53;;
16669;SDS011;8448;52.034;5.158;2023-01-16T05:24:17;9.07;;;2.10;;
16669;SDS011;8448;52.034;5.158;2023-01-16T05:26:45;6.23;;;2.37;;
16669;SDS011;8448;52.034;5.158;2023-01-16T05:29:13;7.57;;;2.63;;
16669;SDS011;8448;52.034;5.158;2023-01-16T05:31:44;4.57;;;2.17;;
16669;SDS011;8448;52.034;5.158;2023-01-16T05:34:11;5.93;;;2.40;;
16669;SDS011;8448;52.034;5.158;2023-01-16T05:36:38;6.67;;;2.70;;
16669;SDS011;8448;52.034;5.158;2023-01-16T05:39:06;7.27;;;2.67;;
16669;SDS011;8448;52.034;5.158;2023-01-16T05:41:34;8.40;;;2.33;;
16669;SDS011;8448;52.034;5.158;2023-01-16T05:44:01;4.67;;;2.07;;
16669;SDS011;8448;52.034;5.158;2023-01-16T05:46:30;7.83;;;2.20;;
16669;SDS011;8448;52.034;5.158;2023-01-16T05:48:58;6.50;;;2.33;;
16669;SDS011;8448;52.034;5.158;2023-01-16T05:51:25;5.80;;;2.10;;
16669;SDS011;8448;52.034;5.158;2023-01-16T05:53:52;6.07;;;2.23;;
16669;SDS011;8448;52.034;5.158;2023-01-16T05:56:20;8.33;;;2.10;;
16669;SDS011;8448;52.034;5.158;2023-01-16T05:58:48;6.00;;;2.17;;
16669;SDS011;8448;52.034;5.158;2023-01-16T06:01:16;5.83;;;2.00;;
16669;SDS011;8448;52.034;5.158;2023-01-16T06:03:45;9.27;;;2.60;;
16669;SDS011;8448;52.034;5.158;2023-01-16T06:06:12;6.23;;;1.90;;
16669;SDS011;8448;52.034;5.158;2023-01-16T06:08:39;6.10;;;2.40;;
16669;SDS011;8448;52.034;5.158;2023-01-16T06:11:07;8.43;;;2.53;;
16669;SDS011;8448;52.034;5.158;2023-01-16T06:13:34;5.63;;;2.10;;
16669;SDS011;8448;52.034;5.158;2023-01-16T06:16:01;4.73;;;2.30;;
16669;SDS011;8448;52.034;5.158;2023-01-16T06:18:29;8.07;;;2.20;;
16669;SDS011;8448;52.034;5.158;2023-01-16T06:20:57;6.33;;;2.30;;
16669;SDS011;8448;52.034;5.158;2023-01-16T06:23:25;8.80;;;2.70;;
16669;SDS011;8448;52.034;5.158;2023-01-16T06:25:52;6.80;;;2.30;;
16669;SDS011;8448;52.034;5.158;2023-01-16T06:28:19;7.97;;;2.57;;
16669;SDS011;8448;52.034;5.158;2023-01-16T06:30:49;8.80;;;2.47;;
16669;SDS011;8448;52.034;5.158;2023-01-16T06:33:18;9.83;;;2.40;;
16669;SDS011;8448;52.034;5.158;2023-01-16T06:35:45;8.63;;;2.72;;
16669;SDS011;8448;52.034;5.158;2023-01-16T06:38:15;9.07;;;1.93;;
16669;SDS011;8448;52.034;5.158;2023-01-16T06:40:43;9.73;;;2.33;;
16669;SDS011;8448;52.034;5.158;2023-01-16T06:43:10;6.47;;;2.10;;
16669;SDS011;8448;52.034;5.158;2023-01-16T06:45:38;8.00;;;2.30;;
16669;SDS011;8448;52.034;5.158;2023-01-16T06:48:05;8.23;;;2.10;;
16669;SDS011;8448;52.034;5.158;2023-01-16T06:50:33;6.53;;;2.43;;
16669;SDS011;8448;52.034;5.158;2023-01-16T06:53:00;6.20;;;1.80;;
16669;SDS011;8448;52.034;5.158;2023-01-16T06:55:29;8.47;;;2.20;;
16669;SDS011;8448;52.034;5.158;2023-01-16T06:57:56;7.30;;;2.40;;
16669;SDS011;8448;52.034;5.158;2023-01-16T07:00:23;6.73;;;2.57;;
16669;SDS011;8448;52.034;5.158;2023-01-16T07:02:51;6.07;;;1.90;;
16669;SDS011;8448;52.034;5.158;2023-01-16T07:05:19;6.50;;;1.90;;
16669;SDS011;8448;52.034;5.158;2023-01-16T07:07:47;7.37;;;2.00;;
16669;SDS011;8448;52.034;5.158;2023-01-16T07:10:16;5.70;;;1.80;;
16669;SDS011;8448;52.034;5.158;2023-01-16T07:12:46;4.47;;;1.70;;
16669;SDS011;8448;52.034;5.158;2023-01-16T07:15:14;7.67;;;1.67;;
16669;SDS011;8448;52.034;5.158;2023-01-16T07:17:59;4.35;;;2.00;;
16669;SDS011;8448;52.034;5.158;2023-01-16T07:20:43;7.63;;;2.00;;
16669;SDS011;8448;52.034;5.158;2023-01-16T07:23:32;4.47;;;1.67;;
16669;SDS011;8448;52.034;5.158;2023-01-16T07:26:01;3.70;;;1.57;;
16669;SDS011;8448;52.034;5.158;2023-01-16T07:28:31;4.45;;;1.90;;
16669;SDS011;8448;52.034;5.158;2023-01-16T07:30:58;3.57;;;1.60;;
16669;SDS011;8448;52.034;5.158;2023-01-16T07:33:28;5.80;;;1.70;;
16669;SDS011;8448;52.034;5.158;2023-01-16T07:35:55;2.63;;;1.33;;
16669;SDS011;8448;52.034;5.158;2023-01-16T07:38:23;3.90;;;1.40;;
16669;SDS011;8448;52.034;5.158;2023-01-16T07:40:50;3.17;;;1.30;;
16669;SDS011;8448;52.034;5.158;2023-01-16T07:43:17;5.73;;;1.40;;
16669;SDS011;8448;52.034;5.158;2023-01-16T07:45:46;4.17;;;1.50;;
16669;SDS011;8448;52.034;5.158;2023-01-16T07:48:17;3.27;;;1.30;;
16669;SDS011;8448;52.034;5.158;2023-01-16T07:50:48;4.37;;;1.23;;
16669;SDS011;8448;52.034;5.158;2023-01-16T07:53:17;5.83;;;1.33;;
16669;SDS011;8448;52.034;5.158;2023-01-16T07:55:46;2.20;;;1.00;;
16669;SDS011;8448;52.034;5.158;2023-01-16T07:58:14;4.03;;;1.30;;
16669;SDS011;8448;52.034;5.158;2023-01-16T08:00:42;4.63;;;1.30;;
16669;SDS011;8448;52.034;5.158;2023-01-16T08:03:11;5.10;;;1.20;;
16669;SDS011;8448;52.034;5.158;2023-01-16T08:05:40;4.07;;;1.33;;
16669;SDS011;8448;52.034;5.158;2023-01-16T08:08:08;2.33;;;1.10;;
16669;SDS011;8448;52.034;5.158;2023-01-16T08:10:36;3.63;;;1.10;;
16669;SDS011;8448;52.034;5.158;2023-01-16T08:13:03;5.23;;;1.30;;
16669;SDS011;8448;52.034;5.158;2023-01-16T08:15:31;4.17;;;1.23;;
16669;SDS011;8448;52.034;5.158;2023-01-16T08:17:58;5.43;;;1.30;;
16669;SDS011;8448;52.034;5.158;2023-01-16T08:20:27;2.73;;;1.23;;
16669;SDS011;8448;52.034;5.158;2023-01-16T08:22:54;3.13;;;1.07;;
16669;SDS011;8448;52.034;5.158;2023-01-16T08:25:23;3.07;;;1.30;;
16669;SDS011;8448;52.034;5.158;2023-01-16T08:27:51;4.27;;;1.53;;
16669;SDS011;8448;52.034;5.158;2023-01-16T08:30:18;2.90;;;1.60;;
16669;SDS011;8448;52.034;5.158;2023-01-16T08:32:46;2.77;;;1.30;;
16669;SDS011;8448;52.034;5.158;2023-01-16T08:35:13;4.47;;;1.30;;
16669;SDS011;8448;52.034;5.158;2023-01-16T08:37:48;6.40;;;1.70;;
16669;SDS011;8448;52.034;5.158;2023-01-16T08:40:15;5.33;;;1.90;;
16669;SDS011;8448;52.034;5.158;2023-01-16T08:42:43;7.03;;;1.83;;
16669;SDS011;8448;52.034;5.158;2023-01-16T08:45:28;5.17;;;1.80;;
16669;SDS011;8448;52.034;5.158;2023-01-16T08:48:13;5.77;;;1.67;;
16669;SDS011;8448;52.034;5.158;2023-01-16T08:51:02;3.17;;;1.93;;
16669;SDS011;8448;52.034;5.158;2023-01-16T08:53:50;4.67;;;1.83;;
16669;SDS011;8448;52.034;5.158;2023-01-16T08:56:18;4.57;;;2.13;;
16669;SDS011;8448;52.034;5.158;2023-01-16T08:58:45;6.00;;;2.13;;
16669;SDS011;8448;52.034;5.158;2023-01-16T09:01:13;4.33;;;2.00;;
16669;SDS011;8448;52.034;5.158;2023-01-16T09:03:40;6.07;;;2.60;;
16669;SDS011;8448;52.034;5.158;2023-01-16T09:06:08;4.67;;;2.63;;
16669;SDS011;8448;52.034;5.158;2023-01-16T09:08:35;4.17;;;2.67;;
16669;SDS011;8448;52.034;5.158;2023-01-16T09:11:04;4.77;;;2.87;;
16669;SDS011;8448;52.034;5.158;2023-01-16T09:13:49;6.30;;;3.10;;
16669;SDS011;8448;52.034;5.158;2023-01-16T09:16:16;5.03;;;2.87;;
16669;SDS011;8448;52.034;5.158;2023-01-16T09:18:44;4.67;;;3.03;;
16669;SDS011;8448;52.034;5.158;2023-01-16T09:21:12;4.50;;;2.93;;
16669;SDS011;8448;52.034;5.158;2023-01-16T09:23:39;5.77;;;3.40;;
16669;SDS011;8448;52.034;5.158;2023-01-16T09:26:08;4.93;;;3.17;;
16669;SDS011;8448;52.034;5.158;2023-01-16T09:28:35;6.97;;;3.10;;
16669;SDS011;8448;52.034;5.158;2023-01-16T09:31:03;6.93;;;2.97;;
16669;SDS011;8448;52.034;5.158;2023-01-16T09:33:31;5.63;;;2.97;;
16669;SDS011;8448;52.034;5.158;2023-01-16T09:35:58;5.47;;;2.80;;
16669;SDS011;8448;52.034;5.158;2023-01-16T09:38:25;5.97;;;2.90;;
16669;SDS011;8448;52.034;5.158;2023-01-16T09:40:54;4.33;;;2.60;;
16669;SDS011;8448;52.034;5.158;2023-01-16T09:43:31;5.23;;;2.67;;
16669;SDS011;8448;52.034;5.158;2023-01-16T09:46:03;4.33;;;2.63;;
16669;SDS011;8448;52.034;5.158;2023-01-16T09:48:33;6.07;;;2.93;;
16669;SDS011;8448;52.034;5.158;2023-01-16T09:51:05;4.00;;;2.60;;
16669;SDS011;8448;52.034;5.158;2023-01-16T09:53:38;3.27;;;1.97;;
16669;SDS011;8448;52.034;5.158;2023-01-16T09:56:40;5.13;;;2.40;;
16669;SDS011;8448;52.034;5.158;2023-01-16T09:59:28;4.57;;;2.60;;
16669;SDS011;8448;52.034;5.158;2023-01-16T10:02:00;5.03;;;2.20;;
16669;SDS011;8448;52.034;5.158;2023-01-16T10:04:36;5.80;;;2.40;;
16669;SDS011;8448;52.034;5.158;2023-01-16T10:07:08;4.77;;;2.10;;
16669;SDS011;8448;52.034;5.158;2023-01-16T10:09:59;4.30;;;1.90;;
16669;SDS011;8448;52.034;5.158;2023-01-16T10:12:32;4.17;;;1.90;;
16669;SDS011;8448;52.034;5.158;2023-01-16T10:15:04;5.60;;;2.13;;
16669;SDS011;8448;52.034;5.158;2023-01-16T10:17:39;4.40;;;2.00;;
16669;SDS011;8448;52.034;5.158;2023-01-16T10:20:29;3.73;;;1.70;;
16669;SDS011;8448;52.034;5.158;2023-01-16T10:23:07;5.43;;;1.60;;
16669;SDS011;8448;52.034;5.158;2023-01-16T10:25:43;1.60;;;1.20;;
16669;SDS011;8448;52.034;5.158;2023-01-16T10:28:19;2.50;;;1.17;;
16669;SDS011;8448;52.034;5.158;2023-01-16T10:30:57;1.30;;;0.97;;
16669;SDS011;8448;52.034;5.158;2023-01-16T10:33:28;3.60;;;1.30;;
16669;SDS011;8448;52.034;5.158;2023-01-16T10:35:57;3.23;;;1.23;;
16669;SDS011;8448;52.034;5.158;2023-01-16T10:38:26;2.20;;;1.33;;
16669;SDS011;8448;52.034;5.158;2023-01-16T10:41:00;1.30;;;1.00;;
16669;SDS011;8448;52.034;5.158;2023-01-16T10:43:48;2.70;;;1.30;;
16669;SDS011;8448;52.034;5.158;2023-01-16T10:46:35;3.13;;;1.27;;
16669;SDS011;8448;52.034;5.158;2023-01-16T10:49:19;1.37;;;1.10;;
16669;SDS011;8448;52.034;5.158;2023-01-16T10:51:52;3.70;;;1.30;;
16669;SDS011;8448;52.034;5.158;2023-01-16T10:54:20;1.93;;;1.20;;
16669;SDS011;8448;52.034;5.158;2023-01-16T10:56:47;2.97;;;1.30;;
16669;SDS011;8448;52.034;5.158;2023-01-16T10:59:15;1.17;;;1.07;;
16669;SDS011;8448;52.034;5.158;2023-01-16T11:01:44;3.10;;;1.20;;
16669;SDS011;8448;52.034;5.158;2023-01-16T11:04:16;3.27;;;1.40;;
16669;SDS011;8448;52.034;5.158;2023-01-16T11:06:44;2.03;;;1.20;;
16669;SDS011;8448;52.034;5.158;2023-01-16T11:09:16;4.07;;;1.43;;
16669;SDS011;8448;52.034;5.158;2023-01-16T11:11:44;1.90;;;1.30;;
16669;SDS011;8448;52.034;5.158;2023-01-16T11:14:30;2.57;;;1.40;;
16669;SDS011;8448;52.034;5.158;2023-01-16T11:17:22;1.63;;;1.30;;
16669;SDS011;8448;52.034;5.158;2023-01-16T11:20:08;1.97;;;1.20;;
16669;SDS011;8448;52.034;5.158;2023-01-16T11:22:38;3.23;;;1.30;;
16669;SDS011;8448;52.034;5.158;2023-01-16T11:25:06;1.83;;;1.20;;
16669;SDS011;8448;52.034;5.158;2023-01-16T11:27:39;2.00;;;1.30;;
16669;SDS011;8448;52.034;5.158;2023-01-16T11:30:14;1.30;;;1.20;;
16669;SDS011;8448;52.034;5.158;2023-01-16T11:32:45;1.77;;;1.17;;
16669;SDS011;8448;52.034;5.158;2023-01-16T11:35:15;2.20;;;1.20;;
16669;SDS011;8448;52.034;5.158;2023-01-16T11:37:44;2.27;;;1.33;;
16669;SDS011;8448;52.034;5.158;2023-01-16T11:40:16;1.17;;;1.00;;
16669;SDS011;8448;52.034;5.158;2023-01-16T11:42:52;1.70;;;1.20;;
16669;SDS011;8448;52.034;5.158;2023-01-16T11:45:39;1.53;;;1.10;;
16669;SDS011;8448;52.034;5.158;2023-01-16T11:48:28;1.60;;;1.10;;
16669;SDS011;8448;52.034;5.158;2023-01-16T11:51:02;1.43;;;1.00;;
16669;SDS011;8448;52.034;5.158;2023-01-16T11:53:31;1.57;;;0.90;;
16669;SDS011;8448;52.034;5.158;2023-01-16T11:56:17;1.23;;;0.90;;
16669;SDS011;8448;52.034;5.158;2023-01-16T11:59:07;1.83;;;0.80;;
16669;SDS011;8448;52.034;5.158;2023-01-16T12:01:57;0.80;;;0.80;;
16669;SDS011;8448;52.034;5.158;2023-01-16T12:04:48;1.20;;;0.80;;
16669;SDS011;8448;52.034;5.158;2023-01-16T12:07:41;1.23;;;0.90;;
16669;SDS011;8448;52.034;5.158;2023-01-16T12:10:24;0.83;;;0.70;;
16669;SDS011;8448;52.034;5.158;2023-01-16T12:12:59;1.83;;;0.90;;
16669;SDS011;8448;52.034;5.158;2023-01-16T12:15:56;1.37;;;0.70;;
16669;SDS011;8448;52.034;5.158;2023-01-16T12:18:41;2.20;;;0.93;;
16669;SDS011;8448;52.034;5.158;2023-01-16T12:21:29;1.87;;;0.90;;
16669;SDS011;8448;52.034;5.158;2023-01-16T12:24:09;1.57;;;0.87;;
16669;SDS011;8448;52.034;5.158;2023-01-16T12:26:46;0.97;;;0.90;;
16669;SDS011;8448;52.034;5.158;2023-01-16T12:29:23;0.97;;;0.80;;
16669;SDS011;8448;52.034;5.158;2023-01-16T12:32:00;2.33;;;0.83;;
16669;SDS011;8448;52.034;5.158;2023-01-16T12:34:44;1.70;;;1.10;;
16669;SDS011;8448;52.034;5.158;2023-01-16T12:37:23;3.20;;;1.20;;
16669;SDS011;8448;52.034;5.158;2023-01-16T12:39:58;1.83;;;1.20;;
16669;SDS011;8448;52.034;5.158;2023-01-16T12:42:34;3.13;;;1.07;;
16669;SDS011;8448;52.034;5.158;2023-01-16T12:45:26;3.83;;;1.20;;
16669;SDS011;8448;52.034;5.158;2023-01-16T12:48:02;1.43;;;1.10;;
16669;SDS011;8448;52.034;5.158;2023-01-16T12:50:49;2.00;;;1.30;;
16669;SDS011;8448;52.034;5.158;2023-01-16T12:53:27;1.73;;;1.47;;
16669;SDS011;8448;52.034;5.158;2023-01-16T12:56:21;2.30;;;1.40;;
16669;SDS011;8448;52.034;5.158;2023-01-16T12:58:55;2.63;;;1.40;;
16669;SDS011;8448;52.034;5.158;2023-01-16T13:01:27;1.63;;;1.40;;
16669;SDS011;8448;52.034;5.158;2023-01-16T13:03:58;2.07;;;1.30;;
16669;SDS011;8448;52.034;5.158;2023-01-16T13:06:32;2.13;;;1.40;;
16669;SDS011;8448;52.034;5.158;2023-01-16T13:09:02;1.80;;;1.40;;
16669;SDS011;8448;52.034;5.158;2023-01-16T13:11:36;1.73;;;1.43;;
16669;SDS011;8448;52.034;5.158;2023-01-16T13:14:25;2.10;;;1.20;;
16669;SDS011;8448;52.034;5.158;2023-01-16T13:16:57;1.57;;;1.20;;
16669;SDS011;8448;52.034;5.158;2023-01-16T13:19:27;2.00;;;1.10;;
16669;SDS011;8448;52.034;5.158;2023-01-16T13:21:57;2.70;;;1.20;;
16669;SDS011;8448;52.034;5.158;2023-01-16T13:24:31;4.03;;;1.20;;
16669;SDS011;8448;52.034;5.158;2023-01-16T13:27:00;2.80;;;1.30;;
16669;SDS011;8448;52.034;5.158;2023-01-16T13:29:31;1.73;;;1.30;;
16669;SDS011;8448;52.034;5.158;2023-01-16T13:32:03;1.97;;;1.23;;
16669;SDS011;8448;52.034;5.158;2023-01-16T13:34:35;1.50;;;1.30;;
16669;SDS011;8448;52.034;5.158;2023-01-16T13:37:12;1.57;;;1.33;;
16669;SDS011;8448;52.034;5.158;2023-01-16T13:42:50;2.13;;;1.60;;
16669;SDS011;8448;52.034;5.158;2023-01-16T13:45:23;2.30;;;1.70;;
16669;SDS011;8448;52.034;5.158;2023-01-16T13:48:13;2.57;;;1.70;;
16669;SDS011;8448;52.034;5.158;2023-01-16T13:50:43;2.97;;;2.07;;
16669;SDS011;8448;52.034;5.158;2023-01-16T13:53:16;2.37;;;1.90;;
16669;SDS011;8448;52.034;5.158;2023-01-16T13:55:48;4.30;;;2.10;;
16669;SDS011;8448;52.034;5.158;2023-01-16T13:58:17;2.87;;;2.10;;
16669;SDS011;8448;52.034;5.158;2023-01-16T14:00:46;3.53;;;2.10;;
16669;SDS011;8448;52.034;5.158;2023-01-16T14:03:22;2.60;;;2.10;;
16669;SDS011;8448;52.034;5.158;2023-01-16T14:05:51;3.00;;;1.80;;
16669;SDS011;8448;52.034;5.158;2023-01-16T14:08:26;2.93;;;2.03;;
16669;SDS011;8448;52.034;5.158;2023-01-16T14:11:32;4.63;;;2.10;;
16669;SDS011;8448;52.034;5.158;2023-01-16T14:14:21;2.47;;;1.90;;
16669;SDS011;8448;52.034;5.158;2023-01-16T14:17:13;5.97;;;2.00;;
16669;SDS011;8448;52.034;5.158;2023-01-16T14:19:42;3.40;;;2.10;;
16669;SDS011;8448;52.034;5.158;2023-01-16T14:22:19;2.67;;;2.03;;
16669;SDS011;8448;52.034;5.158;2023-01-16T14:25:05;3.23;;;2.20;;
16669;SDS011;8448;52.034;5.158;2023-01-16T14:27:41;3.53;;;2.20;;
16669;SDS011;8448;52.034;5.158;2023-01-16T14:30:13;3.10;;;2.10;;
16669;SDS011;8448;52.034;5.158;2023-01-16T14:32:44;2.97;;;2.10;;
16669;SDS011;8448;52.034;5.158;2023-01-16T14:35:14;2.33;;;1.80;;
16669;SDS011;8448;52.034;5.158;2023-01-16T14:37:43;2.67;;;1.77;;
16669;SDS011;8448;52.034;5.158;2023-01-16T14:40:19;3.17;;;1.90;;
16669;SDS011;8448;52.034;5.158;2023-01-16T14:43:11;2.77;;;1.97;;
16669;SDS011;8448;52.034;5.158;2023-01-16T14:46:12;2.23;;;1.80;;
16669;SDS011;8448;52.034;5.158;2023-01-16T14:52:34;2.60;;;1.93;;
16669;SDS011;8448;52.034;5.158;2023-01-16T14:55:32;3.20;;;2.13;;
16669;SDS011;8448;52.034;5.158;2023-01-16T14:58:07;2.20;;;2.00;;
16669;SDS011;8448;52.034;5.158;2023-01-16T15:00:37;2.03;;;1.80;;
16669;SDS011;8448;52.034;5.158;2023-01-16T15:03:07;2.90;;;2.10;;
16669;SDS011;8448;52.034;5.158;2023-01-16T15:05:39;2.80;;;2.23;;
16669;SDS011;8448;52.034;5.158;2023-01-16T15:08:21;2.60;;;2.20;;
16669;SDS011;8448;52.034;5.158;2023-01-16T15:10:50;2.93;;;2.10;;
16669;SDS011;8448;52.034;5.158;2023-01-16T15:13:20;3.27;;;2.30;;
16669;SDS011;8448;52.034;5.158;2023-01-16T15:15:50;2.80;;;2.20;;
16669;SDS011;8448;52.034;5.158;2023-01-16T15:18:20;3.00;;;2.30;;
16669;SDS011;8448;52.034;5.158;2023-01-16T15:21:10;2.97;;;2.20;;
16669;SDS011;8448;52.034;5.158;2023-01-16T15:23:57;3.23;;;2.10;;
16669;SDS011;8448;52.034;5.158;2023-01-16T15:26:30;3.27;;;2.10;;
16669;SDS011;8448;52.034;5.158;2023-01-16T15:32:00;4.47;;;2.10;;
16669;SDS011;8448;52.034;5.158;2023-01-16T15:34:30;2.53;;;1.77;;
16669;SDS011;8448;52.034;5.158;2023-01-16T15:36:58;2.40;;;2.10;;
16669;SDS011;8448;52.034;5.158;2023-01-16T15:39:29;2.70;;;2.10;;
16669;SDS011;8448;52.034;5.158;2023-01-16T15:42:00;2.80;;;2.30;;
16669;SDS011;8448;52.034;5.158;2023-01-16T15:44:46;4.00;;;2.40;;
16669;SDS011;8448;52.034;5.158;2023-01-16T15:47:37;2.80;;;2.25;;